Redondo Beach, Washington
Current Conditions -  °F | °C
As of 3:53 AM on Friday 28 Nov 2014 (Local Time) from KSEA Reporting Station
Overcast Overcast  
Wind Chill: 54°   Ceiling: 1700
Heat Index: 54°   Visibility: 10mi
Dew Point: 49°   Wind: 18mph
Humidity: 83%   Direction: 190°S
Pressure: 29.61"   Gusts: 25mph
Location:  47.4036°N, 122.309°W
Report Text: KSEA 281153Z 19016G22KT 10SM BKN017 OVC031 12/09 A2961 RMK AO2 RAB39E50 SLP033 P0000 60002 70014 T01220094 10128 20117 58021
Loading
Personal Weather Stations






























Interactive Weather Map New forecast layout! Learn more

10-Day Weather Forecast

Advertisements
Track Severe Weather on mobile